Port Said Airport, Egypt

06:31 EET 1. Listopad 2014 (GMT +0200)
Port Said | Change Station
CLOSE
Current Station
Letiště
Location: Port Said Airport,
Nadmořská výška: 7 ft
Poblíž povětrnostní stanice

Výška 7 ft 31.28 °N, 32.24 °E | Updated 31 minutes ago

Partly Cloudy
Částečně oblačno
66 °F
Pocit jako 66 °F
S
9
Vítr proměnlivý Vítr od JZ

Dnes
Vysoké -- | Nízké -- °F
--% Možnost srážek
Včera
Vysoké -- | Nízké -- °F
Precip. -- inčů
6:06 AM 5:02 PM
Dorůstající měsíc, 62% visible
Tlak 29.98 inčů
Viditelnost 3.7 mílí
Zataženo Nemnoho 2500 ft
Rosný bod 61 °F
Vlhkost 83%
Dešťové srážky 0.00 inčů
Sněhová pokrývka Není k dispozici
UV záření 0 ze 12
Pyl Není k dispozici
Kvalita ovzduší Není k dispozici
Flu Activity Není k dispozici
METAR HEPS 010400Z 22008KT 6000 FEW025 19/16 Q1015 NOSIG

More Conditions Fewer Conditions

Tlak 29.98 inčů
Viditelnost 3.7 mílí
Zataženo Nemnoho 2500 ft
Rosný bod 61 °F
Vlhkost 83%
Dešťové srážky 0.00 inčů
Sněhová pokrývka Není k dispozici
UV záření 0 ze 12
Pyl Není k dispozici
Kvalita ovzduší Není k dispozici
Flu Activity Není k dispozici
METAR HEPS 010400Z 22008KT 6000 FEW025 19/16 Q1015 NOSIG

More Conditions Fewer Conditions

10-Day Weather Forecast

Almanac

Astronomie

Nov. 01, 2014 Východ Západ
Skutečný čas
Občanský soumrak
Námořní soumrak
Astronomický soumrak
Měsíc
Délka denního světla
Délka dne
Tomorrow will be .
, % of the Moon is Illuminated

Dnešní extrémy

Nejvyšší hodnoty ve státě Nejnižší hodnoty ve státě

Community

WunderPhotos

Upload Photos

1,766,854 snímků staženo!

WunderBlogs® & News

Nearby

Kvalita ovzduší

  Kvalita ovzduší Index kvality ovzduší Polutant
Not available.

Výška sněhu

Station Hloubka Nadmořská výška

Seizmická činnost

Město Distance Mag. Čas & datum
Minimální zobrazený rozsah je 2.5.

Pobřežní teplota vody

Lokalita Teplota

Poblíž povětrnostní stanice